sensor_id;sensor_type;location;lat;lon;timestamp;P1;durP1;ratioP1;P2;durP2;ratioP2
2187;SDS011;1100;52.014;8.540;2022-10-26T00:03:35;13.10;;;4.20;;
2187;SDS011;1100;52.014;8.540;2022-10-26T00:06:06;15.32;;;4.00;;
2187;SDS011;1100;52.014;8.540;2022-10-26T00:08:39;12.25;;;3.47;;
2187;SDS011;1100;52.014;8.540;2022-10-26T00:11:06;14.00;;;4.43;;
2187;SDS011;1100;52.014;8.540;2022-10-26T00:13:32;15.03;;;4.57;;
2187;SDS011;1100;52.014;8.540;2022-10-26T00:15:58;14.13;;;3.92;;
2187;SDS011;1100;52.014;8.540;2022-10-26T00:18:23;13.70;;;4.53;;
2187;SDS011;1100;52.014;8.540;2022-10-26T00:20:49;12.25;;;4.57;;
2187;SDS011;1100;52.014;8.540;2022-10-26T00:23:14;11.30;;;4.20;;
2187;SDS011;1100;52.014;8.540;2022-10-26T00:25:40;11.07;;;4.68;;
2187;SDS011;1100;52.014;8.540;2022-10-26T00:28:05;16.00;;;4.23;;
2187;SDS011;1100;52.014;8.540;2022-10-26T00:30:30;16.50;;;4.63;;
2187;SDS011;1100;52.014;8.540;2022-10-26T00:32:56;14.67;;;4.90;;
2187;SDS011;1100;52.014;8.540;2022-10-26T00:35:21;12.43;;;4.37;;
2187;SDS011;1100;52.014;8.540;2022-10-26T00:37:46;11.80;;;4.90;;
2187;SDS011;1100;52.014;8.540;2022-10-26T00:40:12;10.33;;;4.33;;
2187;SDS011;1100;52.014;8.540;2022-10-26T00:42:37;10.20;;;4.30;;
2187;SDS011;1100;52.014;8.540;2022-10-26T00:45:13;10.27;;;4.17;;
2187;SDS011;1100;52.014;8.540;2022-10-26T00:47:45;8.88;;;4.07;;
2187;SDS011;1100;52.014;8.540;2022-10-26T00:50:40;8.20;;;4.07;;
2187;SDS011;1100;52.014;8.540;2022-10-26T00:53:08;9.00;;;3.60;;
2187;SDS011;1100;52.014;8.540;2022-10-26T00:55:36;9.10;;;3.75;;
2187;SDS011;1100;52.014;8.540;2022-10-26T00:58:05;10.27;;;4.05;;
2187;SDS011;1100;52.014;8.540;2022-10-26T01:00:32;10.68;;;3.92;;
2187;SDS011;1100;52.014;8.540;2022-10-26T01:02:59;9.77;;;4.00;;
2187;SDS011;1100;52.014;8.540;2022-10-26T01:05:28;9.33;;;4.27;;
2187;SDS011;1100;52.014;8.540;2022-10-26T01:07:54;10.15;;;4.53;;
2187;SDS011;1100;52.014;8.540;2022-10-26T01:10:20;9.82;;;4.47;;
2187;SDS011;1100;52.014;8.540;2022-10-26T01:12:46;9.98;;;4.50;;
2187;SDS011;1100;52.014;8.540;2022-10-26T01:15:13;10.47;;;4.60;;
2187;SDS011;1100;52.014;8.540;2022-10-26T01:23:30;10.63;;;3.87;;
2187;SDS011;1100;52.014;8.540;2022-10-26T01:26:12;9.73;;;4.28;;
2187;SDS011;1100;52.014;8.540;2022-10-26T01:31:37;8.25;;;4.10;;
2187;SDS011;1100;52.014;8.540;2022-10-26T01:34:29;8.48;;;4.00;;
2187;SDS011;1100;52.014;8.540;2022-10-26T01:37:04;10.03;;;3.73;;
2187;SDS011;1100;52.014;8.540;2022-10-26T01:42:03;11.43;;;4.80;;
2187;SDS011;1100;52.014;8.540;2022-10-26T01:44:39;8.95;;;3.47;;
2187;SDS011;1100;52.014;8.540;2022-10-26T01:47:08;9.68;;;4.40;;
2187;SDS011;1100;52.014;8.540;2022-10-26T01:49:40;11.20;;;3.97;;
2187;SDS011;1100;52.014;8.540;2022-10-26T01:52:10;8.82;;;3.83;;
2187;SDS011;1100;52.014;8.540;2022-10-26T01:54:36;8.45;;;3.90;;
2187;SDS011;1100;52.014;8.540;2022-10-26T01:57:03;8.53;;;3.77;;
2187;SDS011;1100;52.014;8.540;2022-10-26T01:59:40;8.23;;;3.80;;
2187;SDS011;1100;52.014;8.540;2022-10-26T02:07:47;8.67;;;3.67;;
2187;SDS011;1100;52.014;8.540;2022-10-26T02:15:59;9.55;;;3.92;;
2187;SDS011;1100;52.014;8.540;2022-10-26T02:21:25;9.77;;;3.80;;
2187;SDS011;1100;52.014;8.540;2022-10-26T02:23:58;8.20;;;4.03;;
2187;SDS011;1100;52.014;8.540;2022-10-26T02:26:24;8.63;;;3.78;;
2187;SDS011;1100;52.014;8.540;2022-10-26T02:28:53;9.17;;;4.03;;
2187;SDS011;1100;52.014;8.540;2022-10-26T02:31:22;9.13;;;4.15;;
2187;SDS011;1100;52.014;8.540;2022-10-26T02:33:49;9.25;;;3.55;;
2187;SDS011;1100;52.014;8.540;2022-10-26T02:36:18;9.18;;;4.07;;
2187;SDS011;1100;52.014;8.540;2022-10-26T02:38:49;9.95;;;4.00;;
2187;SDS011;1100;52.014;8.540;2022-10-26T02:41:16;7.20;;;3.53;;
2187;SDS011;1100;52.014;8.540;2022-10-26T02:43:44;8.75;;;3.08;;
2187;SDS011;1100;52.014;8.540;2022-10-26T02:46:19;9.00;;;3.40;;
2187;SDS011;1100;52.014;8.540;2022-10-26T02:48:49;11.05;;;3.55;;
2187;SDS011;1100;52.014;8.540;2022-10-26T02:53:56;8.95;;;3.90;;
2187;SDS011;1100;52.014;8.540;2022-10-26T02:56:39;8.15;;;4.03;;
2187;SDS011;1100;52.014;8.540;2022-10-26T02:59:10;7.07;;;3.43;;
2187;SDS011;1100;52.014;8.540;2022-10-26T03:01:37;7.65;;;3.83;;
2187;SDS011;1100;52.014;8.540;2022-10-26T03:04:04;11.48;;;4.35;;
2187;SDS011;1100;52.014;8.540;2022-10-26T03:06:29;8.70;;;4.27;;
2187;SDS011;1100;52.014;8.540;2022-10-26T03:08:54;8.40;;;3.80;;
2187;SDS011;1100;52.014;8.540;2022-10-26T03:11:20;8.60;;;3.67;;
2187;SDS011;1100;52.014;8.540;2022-10-26T03:13:45;9.57;;;3.63;;
2187;SDS011;1100;52.014;8.540;2022-10-26T03:16:10;9.33;;;4.03;;
2187;SDS011;1100;52.014;8.540;2022-10-26T03:18:36;10.13;;;3.70;;
2187;SDS011;1100;52.014;8.540;2022-10-26T03:21:01;8.87;;;3.93;;
2187;SDS011;1100;52.014;8.540;2022-10-26T03:23:27;10.07;;;3.90;;
2187;SDS011;1100;52.014;8.540;2022-10-26T03:25:56;10.17;;;4.17;;
2187;SDS011;1100;52.014;8.540;2022-10-26T03:28:22;7.95;;;3.42;;
2187;SDS011;1100;52.014;8.540;2022-10-26T03:30:47;7.20;;;3.60;;
2187;SDS011;1100;52.014;8.540;2022-10-26T03:33:12;9.93;;;3.50;;
2187;SDS011;1100;52.014;8.540;2022-10-26T03:35:38;9.15;;;3.88;;
2187;SDS011;1100;52.014;8.540;2022-10-26T03:38:03;10.77;;;3.90;;
2187;SDS011;1100;52.014;8.540;2022-10-26T03:40:28;9.20;;;3.80;;
2187;SDS011;1100;52.014;8.540;2022-10-26T03:42:53;7.50;;;3.80;;
2187;SDS011;1100;52.014;8.540;2022-10-26T03:45:19;10.30;;;4.07;;
2187;SDS011;1100;52.014;8.540;2022-10-26T03:47:45;9.07;;;3.80;;
2187;SDS011;1100;52.014;8.540;2022-10-26T03:50:12;9.90;;;3.90;;
2187;SDS011;1100;52.014;8.540;2022-10-26T03:52:38;10.05;;;3.55;;
2187;SDS011;1100;52.014;8.540;2022-10-26T03:55:04;10.23;;;4.30;;
2187;SDS011;1100;52.014;8.540;2022-10-26T03:57:30;13.60;;;4.57;;
2187;SDS011;1100;52.014;8.540;2022-10-26T03:59:56;11.33;;;4.20;;
2187;SDS011;1100;52.014;8.540;2022-10-26T04:02:21;9.00;;;4.30;;
2187;SDS011;1100;52.014;8.540;2022-10-26T04:04:46;8.07;;;4.15;;
2187;SDS011;1100;52.014;8.540;2022-10-26T04:07:12;7.53;;;3.80;;
2187;SDS011;1100;52.014;8.540;2022-10-26T04:09:37;10.77;;;3.87;;
2187;SDS011;1100;52.014;8.540;2022-10-26T04:12:02;8.33;;;4.50;;
2187;SDS011;1100;52.014;8.540;2022-10-26T04:14:28;10.20;;;4.20;;
2187;SDS011;1100;52.014;8.540;2022-10-26T04:16:53;8.40;;;4.43;;
2187;SDS011;1100;52.014;8.540;2022-10-26T04:19:18;10.77;;;4.53;;
2187;SDS011;1100;52.014;8.540;2022-10-26T04:21:44;9.53;;;4.13;;
2187;SDS011;1100;52.014;8.540;2022-10-26T04:24:09;9.13;;;4.60;;
2187;SDS011;1100;52.014;8.540;2022-10-26T04:26:35;9.20;;;3.90;;
2187;SDS011;1100;52.014;8.540;2022-10-26T04:29:00;8.27;;;3.75;;
2187;SDS011;1100;52.014;8.540;2022-10-26T04:31:28;9.60;;;4.43;;
2187;SDS011;1100;52.014;8.540;2022-10-26T04:33:54;12.43;;;4.30;;
2187;SDS011;1100;52.014;8.540;2022-10-26T04:36:19;9.43;;;3.87;;
2187;SDS011;1100;52.014;8.540;2022-10-26T04:38:44;9.73;;;4.23;;
2187;SDS011;1100;52.014;8.540;2022-10-26T04:41:11;10.97;;;4.70;;
2187;SDS011;1100;52.014;8.540;2022-10-26T04:43:37;8.68;;;4.55;;
2187;SDS011;1100;52.014;8.540;2022-10-26T04:46:02;9.33;;;5.00;;
2187;SDS011;1100;52.014;8.540;2022-10-26T04:48:27;8.50;;;4.20;;
2187;SDS011;1100;52.014;8.540;2022-10-26T04:50:53;10.80;;;5.27;;
2187;SDS011;1100;52.014;8.540;2022-10-26T04:53:18;12.50;;;5.47;;
2187;SDS011;1100;52.014;8.540;2022-10-26T04:55:43;11.30;;;5.23;;
2187;SDS011;1100;52.014;8.540;2022-10-26T04:58:08;11.50;;;4.90;;
2187;SDS011;1100;52.014;8.540;2022-10-26T05:00:34;9.73;;;4.80;;
2187;SDS011;1100;52.014;8.540;2022-10-26T05:03:00;9.20;;;4.73;;
2187;SDS011;1100;52.014;8.540;2022-10-26T05:05:26;10.45;;;4.97;;
2187;SDS011;1100;52.014;8.540;2022-10-26T05:07:53;9.88;;;5.18;;
2187;SDS011;1100;52.014;8.540;2022-10-26T05:10:19;11.27;;;5.20;;
2187;SDS011;1100;52.014;8.540;2022-10-26T05:12:49;11.17;;;4.70;;
2187;SDS011;1100;52.014;8.540;2022-10-26T05:15:15;10.73;;;5.32;;
2187;SDS011;1100;52.014;8.540;2022-10-26T05:17:40;10.13;;;5.50;;
2187;SDS011;1100;52.014;8.540;2022-10-26T05:20:06;10.23;;;5.10;;
2187;SDS011;1100;52.014;8.540;2022-10-26T05:22:36;10.48;;;5.20;;
2187;SDS011;1100;52.014;8.540;2022-10-26T05:25:02;11.93;;;4.97;;
2187;SDS011;1100;52.014;8.540;2022-10-26T05:27:27;11.53;;;5.23;;
2187;SDS011;1100;52.014;8.540;2022-10-26T05:29:52;12.87;;;5.40;;
2187;SDS011;1100;52.014;8.540;2022-10-26T05:32:18;9.67;;;5.60;;
2187;SDS011;1100;52.014;8.540;2022-10-26T05:34:43;11.33;;;5.27;;
2187;SDS011;1100;52.014;8.540;2022-10-26T05:37:08;8.83;;;4.50;;
2187;SDS011;1100;52.014;8.540;2022-10-26T05:39:34;11.33;;;5.20;;
2187;SDS011;1100;52.014;8.540;2022-10-26T05:41:59;12.60;;;5.23;;
2187;SDS011;1100;52.014;8.540;2022-10-26T05:44:24;9.20;;;4.70;;
2187;SDS011;1100;52.014;8.540;2022-10-26T05:46:50;14.87;;;5.40;;
2187;SDS011;1100;52.014;8.540;2022-10-26T05:49:17;12.25;;;5.22;;
2187;SDS011;1100;52.014;8.540;2022-10-26T05:51:43;9.50;;;4.77;;
2187;SDS011;1100;52.014;8.540;2022-10-26T05:54:08;10.37;;;4.97;;
2187;SDS011;1100;52.014;8.540;2022-10-26T05:56:34;10.33;;;4.90;;
2187;SDS011;1100;52.014;8.540;2022-10-26T05:59:01;12.10;;;5.30;;
2187;SDS011;1100;52.014;8.540;2022-10-26T06:04:36;12.25;;;5.57;;
2187;SDS011;1100;52.014;8.540;2022-10-26T06:07:11;13.18;;;5.15;;
2187;SDS011;1100;52.014;8.540;2022-10-26T06:09:41;11.63;;;5.23;;
2187;SDS011;1100;52.014;8.540;2022-10-26T06:12:07;13.73;;;5.57;;
2187;SDS011;1100;52.014;8.540;2022-10-26T06:14:34;10.18;;;4.78;;
2187;SDS011;1100;52.014;8.540;2022-10-26T06:20:04;13.60;;;5.45;;
2187;SDS011;1100;52.014;8.540;2022-10-26T06:25:54;11.68;;;4.95;;
2187;SDS011;1100;52.014;8.540;2022-10-26T06:31:14;11.77;;;5.10;;
2187;SDS011;1100;52.014;8.540;2022-10-26T06:33:40;12.63;;;5.97;;
2187;SDS011;1100;52.014;8.540;2022-10-26T06:38:44;13.45;;;6.13;;
2187;SDS011;1100;52.014;8.540;2022-10-26T06:41:12;13.43;;;5.80;;
2187;SDS011;1100;52.014;8.540;2022-10-26T06:43:39;15.65;;;6.25;;
2187;SDS011;1100;52.014;8.540;2022-10-26T06:48:47;12.70;;;5.53;;
2187;SDS011;1100;52.014;8.540;2022-10-26T06:51:20;12.50;;;6.25;;
2187;SDS011;1100;52.014;8.540;2022-10-26T06:56:22;14.18;;;6.88;;
2187;SDS011;1100;52.014;8.540;2022-10-26T06:58:48;13.43;;;6.47;;
2187;SDS011;1100;52.014;8.540;2022-10-26T07:01:14;16.20;;;6.82;;
2187;SDS011;1100;52.014;8.540;2022-10-26T07:03:41;13.45;;;6.47;;
2187;SDS011;1100;52.014;8.540;2022-10-26T07:06:07;13.43;;;6.53;;
2187;SDS011;1100;52.014;8.540;2022-10-26T07:08:33;12.98;;;6.53;;
2187;SDS011;1100;52.014;8.540;2022-10-26T07:10:58;13.63;;;6.93;;
2187;SDS011;1100;52.014;8.540;2022-10-26T07:13:24;13.67;;;6.80;;
2187;SDS011;1100;52.014;8.540;2022-10-26T07:15:49;15.87;;;7.30;;
2187;SDS011;1100;52.014;8.540;2022-10-26T07:18:14;18.87;;;6.87;;
2187;SDS011;1100;52.014;8.540;2022-10-26T07:20:40;15.23;;;6.43;;
2187;SDS011;1100;52.014;8.540;2022-10-26T07:23:06;16.20;;;7.33;;
2187;SDS011;1100;52.014;8.540;2022-10-26T07:25:35;15.20;;;6.82;;
2187;SDS011;1100;52.014;8.540;2022-10-26T07:28:03;15.25;;;6.82;;
2187;SDS011;1100;52.014;8.540;2022-10-26T07:30:29;15.10;;;6.63;;
2187;SDS011;1100;52.014;8.540;2022-10-26T07:32:58;15.95;;;6.22;;
2187;SDS011;1100;52.014;8.540;2022-10-26T07:35:25;15.93;;;6.70;;
2187;SDS011;1100;52.014;8.540;2022-10-26T07:37:50;13.63;;;6.33;;
2187;SDS011;1100;52.014;8.540;2022-10-26T07:40:20;15.38;;;6.88;;
2187;SDS011;1100;52.014;8.540;2022-10-26T07:42:46;15.13;;;6.40;;
2187;SDS011;1100;52.014;8.540;2022-10-26T07:45:11;13.30;;;6.93;;
2187;SDS011;1100;52.014;8.540;2022-10-26T07:47:36;13.53;;;6.33;;
2187;SDS011;1100;52.014;8.540;2022-10-26T07:50:01;16.20;;;6.90;;
2187;SDS011;1100;52.014;8.540;2022-10-26T07:52:27;15.07;;;6.73;;
2187;SDS011;1100;52.014;8.540;2022-10-26T07:54:52;12.87;;;6.57;;
2187;SDS011;1100;52.014;8.540;2022-10-26T07:57:18;11.50;;;5.93;;
2187;SDS011;1100;52.014;8.540;2022-10-26T07:59:43;11.00;;;5.20;;
2187;SDS011;1100;52.014;8.540;2022-10-26T08:02:08;11.80;;;5.47;;
2187;SDS011;1100;52.014;8.540;2022-10-26T08:04:34;10.20;;;4.47;;
2187;SDS011;1100;52.014;8.540;2022-10-26T08:06:59;11.37;;;5.53;;
2187;SDS011;1100;52.014;8.540;2022-10-26T08:09:24;9.13;;;5.00;;
2187;SDS011;1100;52.014;8.540;2022-10-26T08:11:50;10.23;;;4.87;;
2187;SDS011;1100;52.014;8.540;2022-10-26T08:14:15;10.47;;;5.40;;
2187;SDS011;1100;52.014;8.540;2022-10-26T08:16:40;11.90;;;5.30;;
2187;SDS011;1100;52.014;8.540;2022-10-26T08:19:07;9.07;;;4.72;;
2187;SDS011;1100;52.014;8.540;2022-10-26T08:21:32;10.67;;;5.17;;
2187;SDS011;1100;52.014;8.540;2022-10-26T08:23:57;11.63;;;5.73;;
2187;SDS011;1100;52.014;8.540;2022-10-26T08:26:23;13.37;;;5.60;;
2187;SDS011;1100;52.014;8.540;2022-10-26T08:28:48;11.20;;;5.20;;
2187;SDS011;1100;52.014;8.540;2022-10-26T08:31:14;11.57;;;5.70;;
2187;SDS011;1100;52.014;8.540;2022-10-26T08:33:39;12.20;;;6.37;;
2187;SDS011;1100;52.014;8.540;2022-10-26T08:36:04;16.07;;;6.50;;
2187;SDS011;1100;52.014;8.540;2022-10-26T08:38:30;14.00;;;5.97;;
2187;SDS011;1100;52.014;8.540;2022-10-26T08:40:57;10.32;;;5.38;;
2187;SDS011;1100;52.014;8.540;2022-10-26T08:43:30;12.60;;;5.33;;
2187;SDS011;1100;52.014;8.540;2022-10-26T08:46:04;12.95;;;7.07;;
2187;SDS011;1100;52.014;8.540;2022-10-26T08:48:34;11.68;;;6.18;;
2187;SDS011;1100;52.014;8.540;2022-10-26T08:51:05;11.47;;;5.63;;
2187;SDS011;1100;52.014;8.540;2022-10-26T08:53:37;12.05;;;6.10;;
2187;SDS011;1100;52.014;8.540;2022-10-26T08:56:17;12.60;;;5.88;;
2187;SDS011;1100;52.014;8.540;2022-10-26T08:58:49;12.38;;;6.00;;
2187;SDS011;1100;52.014;8.540;2022-10-26T09:01:20;15.55;;;5.88;;
2187;SDS011;1100;52.014;8.540;2022-10-26T09:03:45;11.17;;;5.67;;
2187;SDS011;1100;52.014;8.540;2022-10-26T09:06:19;14.57;;;6.07;;
2187;SDS011;1100;52.014;8.540;2022-10-26T09:09:07;14.38;;;6.25;;
2187;SDS011;1100;52.014;8.540;2022-10-26T09:11:45;12.52;;;5.97;;
2187;SDS011;1100;52.014;8.540;2022-10-26T09:17:36;10.82;;;4.75;;
2187;SDS011;1100;52.014;8.540;2022-10-26T09:20:47;13.32;;;5.30;;
2187;SDS011;1100;52.014;8.540;2022-10-26T09:23:25;10.35;;;4.97;;
2187;SDS011;1100;52.014;8.540;2022-10-26T09:25:59;10.95;;;4.95;;
2187;SDS011;1100;52.014;8.540;2022-10-26T09:28:26;10.30;;;5.30;;
2187;SDS011;1100;52.014;8.540;2022-10-26T09:30:54;13.38;;;5.60;;
2187;SDS011;1100;52.014;8.540;2022-10-26T09:33:23;11.38;;;5.30;;
2187;SDS011;1100;52.014;8.540;2022-10-26T09:38:30;12.77;;;5.40;;
2187;SDS011;1100;52.014;8.540;2022-10-26T09:41:05;13.67;;;5.33;;
2187;SDS011;1100;52.014;8.540;2022-10-26T09:46:11;10.02;;;4.95;;
2187;SDS011;1100;52.014;8.540;2022-10-26T09:48:42;9.95;;;4.97;;
2187;SDS011;1100;52.014;8.540;2022-10-26T09:51:16;11.43;;;4.70;;
2187;SDS011;1100;52.014;8.540;2022-10-26T09:53:42;9.47;;;4.90;;
2187;SDS011;1100;52.014;8.540;2022-10-26T09:56:08;8.73;;;4.35;;
2187;SDS011;1100;52.014;8.540;2022-10-26T09:58:43;9.13;;;4.22;;
2187;SDS011;1100;52.014;8.540;2022-10-26T10:01:46;8.90;;;4.37;;
2187;SDS011;1100;52.014;8.540;2022-10-26T10:06:44;10.85;;;4.25;;
2187;SDS011;1100;52.014;8.540;2022-10-26T10:17:22;8.05;;;3.38;;
2187;SDS011;1100;52.014;8.540;2022-10-26T10:19:48;7.05;;;3.13;;
2187;SDS011;1100;52.014;8.540;2022-10-26T10:24:42;7.80;;;3.35;;
2187;SDS011;1100;52.014;8.540;2022-10-26T10:27:21;8.43;;;3.20;;
2187;SDS011;1100;52.014;8.540;2022-10-26T10:29:50;6.40;;;3.10;;
2187;SDS011;1100;52.014;8.540;2022-10-26T10:32:18;8.88;;;3.40;;
2187;SDS011;1100;52.014;8.540;2022-10-26T10:34:45;8.55;;;3.40;;
2187;SDS011;1100;52.014;8.540;2022-10-26T10:37:22;8.57;;;2.88;;
2187;SDS011;1100;52.014;8.540;2022-10-26T10:39:54;9.93;;;3.03;;
2187;SDS011;1100;52.014;8.540;2022-10-26T10:42:22;9.57;;;2.65;;
2187;SDS011;1100;52.014;8.540;2022-10-26T10:44:54;7.93;;;2.60;;
2187;SDS011;1100;52.014;8.540;2022-10-26T10:47:24;5.70;;;2.60;;
2187;SDS011;1100;52.014;8.540;2022-10-26T10:49:55;7.40;;;2.67;;
2187;SDS011;1100;52.014;8.540;2022-10-26T10:52:25;12.33;;;3.63;;
2187;SDS011;1100;52.014;8.540;2022-10-26T10:55:06;5.50;;;2.42;;
2187;SDS011;1100;52.014;8.540;2022-10-26T10:57:50;6.32;;;2.10;;
2187;SDS011;1100;52.014;8.540;2022-10-26T11:00:20;5.97;;;1.60;;
2187;SDS011;1100;52.014;8.540;2022-10-26T11:11:06;4.07;;;0.90;;
2187;SDS011;1100;52.014;8.540;2022-10-26T11:13:37;3.88;;;0.65;;
2187;SDS011;1100;52.014;8.540;2022-10-26T11:16:12;2.92;;;0.70;;
2187;SDS011;1100;52.014;8.540;2022-10-26T11:18:49;5.30;;;0.77;;
2187;SDS011;1100;52.014;8.540;2022-10-26T11:21:26;5.55;;;0.82;;
2187;SDS011;1100;52.014;8.540;2022-10-26T11:24:10;5.57;;;0.60;;
2187;SDS011;1100;52.014;8.540;2022-10-26T11:26:56;5.10;;;0.90;;
2187;SDS011;1100;52.014;8.540;2022-10-26T11:29:28;7.45;;;0.90;;
2187;SDS011;1100;52.014;8.540;2022-10-26T11:32:05;3.87;;;1.00;;
2187;SDS011;1100;52.014;8.540;2022-10-26T11:34:46;6.47;;;1.00;;
2187;SDS011;1100;52.014;8.540;2022-10-26T11:42:44;6.37;;;1.23;;
2187;SDS011;1100;52.014;8.540;2022-10-26T11:45:19;4.85;;;1.00;;
2187;SDS011;1100;52.014;8.540;2022-10-26T11:47:58;5.03;;;1.00;;
2187;SDS011;1100;52.014;8.540;2022-10-26T11:50:34;3.97;;;0.90;;
2187;SDS011;1100;52.014;8.540;2022-10-26T11:53:14;3.58;;;0.88;;
2187;SDS011;1100;52.014;8.540;2022-10-26T11:55:41;4.93;;;1.13;;
2187;SDS011;1100;52.014;8.540;2022-10-26T11:58:13;5.20;;;1.00;;
2187;SDS011;1100;52.014;8.540;2022-10-26T12:00:42;6.33;;;1.00;;
2187;SDS011;1100;52.014;8.540;2022-10-26T12:03:14;6.15;;;0.98;;
2187;SDS011;1100;52.014;8.540;2022-10-26T12:05:43;5.27;;;1.23;;
2187;SDS011;1100;52.014;8.540;2022-10-26T12:08:23;18.00;;;2.20;;
2187;SDS011;1100;52.014;8.540;2022-10-26T12:10:51;4.93;;;1.10;;
2187;SDS011;1100;52.014;8.540;2022-10-26T12:13:35;4.82;;;1.02;;
2187;SDS011;1100;52.014;8.540;2022-10-26T12:16:09;9.65;;;1.20;;
2187;SDS011;1100;52.014;8.540;2022-10-26T12:18:47;6.37;;;1.00;;
2187;SDS011;1100;52.014;8.540;2022-10-26T12:21:17;5.88;;;1.73;;
2187;SDS011;1100;52.014;8.540;2022-10-26T12:23:53;4.63;;;0.90;;
2187;SDS011;1100;52.014;8.540;2022-10-26T12:34:00;6.32;;;1.63;;
2187;SDS011;1100;52.014;8.540;2022-10-26T12:39:36;5.47;;;1.10;;
2187;SDS011;1100;52.014;8.540;2022-10-26T12:46:56;8.80;;;1.48;;
2187;SDS011;1100;52.014;8.540;2022-10-26T12:52:26;6.32;;;1.20;;
2187;SDS011;1100;52.014;8.540;2022-10-26T13:08:55;6.65;;;1.17;;
2187;SDS011;1100;52.014;8.540;2022-10-26T13:11:31;5.65;;;1.27;;
2187;SDS011;1100;52.014;8.540;2022-10-26T13:14:03;8.47;;;2.03;;
2187;SDS011;1100;52.014;8.540;2022-10-26T13:16:32;4.07;;;1.10;;
2187;SDS011;1100;52.014;8.540;2022-10-26T13:18:57;8.50;;;1.58;;
2187;SDS011;1100;52.014;8.540;2022-10-26T13:21:24;6.68;;;1.45;;
2187;SDS011;1100;52.014;8.540;2022-10-26T13:26:25;4.87;;;1.03;;
2187;SDS011;1100;52.014;8.540;2022-10-26T13:28:56;6.70;;;1.20;;
2187;SDS011;1100;52.014;8.540;2022-10-26T13:33:58;6.03;;;1.17;;
2187;SDS011;1100;52.014;8.540;2022-10-26T13:39:35;5.13;;;1.07;;
2187;SDS011;1100;52.014;8.540;2022-10-26T13:42:04;5.10;;;1.40;;
2187;SDS011;1100;52.014;8.540;2022-10-26T13:44:38;4.05;;;0.90;;
2187;SDS011;1100;52.014;8.540;2022-10-26T13:47:10;6.28;;;1.02;;
2187;SDS011;1100;52.014;8.540;2022-10-26T13:49:46;6.63;;;1.20;;
2187;SDS011;1100;52.014;8.540;2022-10-26T13:52:16;8.57;;;1.30;;
2187;SDS011;1100;52.014;8.540;2022-10-26T13:54:52;7.55;;;1.20;;
2187;SDS011;1100;52.014;8.540;2022-10-26T13:57:22;7.95;;;1.38;;
2187;SDS011;1100;52.014;8.540;2022-10-26T13:59:49;5.57;;;1.23;;
2187;SDS011;1100;52.014;8.540;2022-10-26T14:02:17;5.70;;;1.50;;
2187;SDS011;1100;52.014;8.540;2022-10-26T14:04:48;6.60;;;1.10;;
2187;SDS011;1100;52.014;8.540;2022-10-26T14:07:17;6.47;;;1.20;;
2187;SDS011;1100;52.014;8.540;2022-10-26T14:09:54;6.63;;;1.50;;
2187;SDS011;1100;52.014;8.540;2022-10-26T14:12:21;6.05;;;1.40;;
2187;SDS011;1100;52.014;8.540;2022-10-26T14:14:49;6.72;;;1.77;;
2187;SDS011;1100;52.014;8.540;2022-10-26T14:17:20;7.37;;;1.50;;
2187;SDS011;1100;52.014;8.540;2022-10-26T14:19:48;6.28;;;1.20;;
2187;SDS011;1100;52.014;8.540;2022-10-26T14:22:21;5.32;;;1.05;;
2187;SDS011;1100;52.014;8.540;2022-10-26T14:24:52;5.88;;;1.60;;
2187;SDS011;1100;52.014;8.540;2022-10-26T14:27:21;8.25;;;1.63;;
2187;SDS011;1100;52.014;8.540;2022-10-26T14:29:49;7.23;;;2.03;;
2187;SDS011;1100;52.014;8.540;2022-10-26T14:32:24;8.02;;;1.52;;
2187;SDS011;1100;52.014;8.540;2022-10-26T14:34:51;8.50;;;1.45;;
2187;SDS011;1100;52.014;8.540;2022-10-26T14:38:03;7.47;;;1.02;;
2187;SDS011;1100;52.014;8.540;2022-10-26T14:40:20;6.28;;;1.90;;
2187;SDS011;1100;52.014;8.540;2022-10-26T14:42:49;8.30;;;1.73;;
2187;SDS011;1100;52.014;8.540;2022-10-26T14:47:47;7.15;;;1.55;;
2187;SDS011;1100;52.014;8.540;2022-10-26T14:50:17;6.70;;;1.30;;
2187;SDS011;1100;52.014;8.540;2022-10-26T14:52:48;5.15;;;1.48;;
2187;SDS011;1100;52.014;8.540;2022-10-26T14:55:15;4.63;;;1.60;;
2187;SDS011;1100;52.014;8.540;2022-10-26T14:57:41;7.47;;;1.40;;
2187;SDS011;1100;52.014;8.540;2022-10-26T15:02:46;5.32;;;1.40;;
2187;SDS011;1100;52.014;8.540;2022-10-26T15:05:35;6.65;;;1.50;;
2187;SDS011;1100;52.014;8.540;2022-10-26T15:08:00;8.55;;;2.13;;
2187;SDS011;1100;52.014;8.540;2022-10-26T15:15:34;5.65;;;1.30;;
2187;SDS011;1100;52.014;8.540;2022-10-26T15:18:00;7.70;;;1.60;;
2187;SDS011;1100;52.014;8.540;2022-10-26T15:20:26;7.13;;;1.70;;
2187;SDS011;1100;52.014;8.540;2022-10-26T15:22:54;5.55;;;1.20;;
2187;SDS011;1100;52.014;8.540;2022-10-26T15:25:22;7.25;;;1.45;;
2187;SDS011;1100;52.014;8.540;2022-10-26T15:27:51;5.20;;;1.53;;
2187;SDS011;1100;52.014;8.540;2022-10-26T15:30:19;5.63;;;1.55;;
2187;SDS011;1100;52.014;8.540;2022-10-26T15:32:50;8.55;;;1.73;;
2187;SDS011;1100;52.014;8.540;2022-10-26T15:37:48;6.30;;;1.80;;
2187;SDS011;1100;52.014;8.540;2022-10-26T15:40:14;6.35;;;1.50;;
2187;SDS011;1100;52.014;8.540;2022-10-26T15:42:41;5.60;;;1.10;;
2187;SDS011;1100;52.014;8.540;2022-10-26T15:47:45;6.35;;;1.60;;
2187;SDS011;1100;52.014;8.540;2022-10-26T15:50:14;5.43;;;1.43;;
2187;SDS011;1100;52.014;8.540;2022-10-26T15:52:41;4.93;;;1.38;;
2187;SDS011;1100;52.014;8.540;2022-10-26T15:55:07;7.03;;;1.70;;
2187;SDS011;1100;52.014;8.540;2022-10-26T15:57:33;4.97;;;1.30;;
2187;SDS011;1100;52.014;8.540;2022-10-26T15:59:59;7.53;;;1.80;;
2187;SDS011;1100;52.014;8.540;2022-10-26T16:02:24;6.30;;;1.70;;
2187;SDS011;1100;52.014;8.540;2022-10-26T16:04:51;7.93;;;1.50;;
2187;SDS011;1100;52.014;8.540;2022-10-26T16:07:16;4.60;;;1.47;;
2187;SDS011;1100;52.014;8.540;2022-10-26T16:09:42;6.37;;;1.80;;
2187;SDS011;1100;52.014;8.540;2022-10-26T16:12:11;5.90;;;1.60;;
2187;SDS011;1100;52.014;8.540;2022-10-26T16:14:37;5.43;;;1.90;;
2187;SDS011;1100;52.014;8.540;2022-10-26T16:17:03;5.78;;;1.67;;
2187;SDS011;1100;52.014;8.540;2022-10-26T16:19:30;7.85;;;1.98;;
2187;SDS011;1100;52.014;8.540;2022-10-26T16:21:56;6.33;;;1.90;;
2187;SDS011;1100;52.014;8.540;2022-10-26T16:24:22;6.72;;;2.40;;
2187;SDS011;1100;52.014;8.540;2022-10-26T16:26:47;8.27;;;2.20;;
2187;SDS011;1100;52.014;8.540;2022-10-26T16:29:13;7.27;;;2.07;;
2187;SDS011;1100;52.014;8.540;2022-10-26T16:31:38;6.43;;;1.87;;
2187;SDS011;1100;52.014;8.540;2022-10-26T16:34:03;6.97;;;1.73;;
2187;SDS011;1100;52.014;8.540;2022-10-26T16:36:29;5.67;;;1.93;;
2187;SDS011;1100;52.014;8.540;2022-10-26T16:38:56;5.90;;;2.08;;
2187;SDS011;1100;52.014;8.540;2022-10-26T16:41:21;8.23;;;2.20;;
2187;SDS011;1100;52.014;8.540;2022-10-26T16:43:47;7.50;;;2.30;;
2187;SDS011;1100;52.014;8.540;2022-10-26T16:46:13;8.43;;;2.40;;
2187;SDS011;1100;52.014;8.540;2022-10-26T16:48:41;7.50;;;2.33;;
2187;SDS011;1100;52.014;8.540;2022-10-26T16:51:08;12.23;;;3.50;;
2187;SDS011;1100;52.014;8.540;2022-10-26T16:53:35;13.02;;;2.80;;
2187;SDS011;1100;52.014;8.540;2022-10-26T16:56:04;10.70;;;2.70;;
2187;SDS011;1100;52.014;8.540;2022-10-26T16:58:32;10.07;;;2.63;;
2187;SDS011;1100;52.014;8.540;2022-10-26T17:00:57;6.80;;;2.10;;
2187;SDS011;1100;52.014;8.540;2022-10-26T17:03:22;6.38;;;2.83;;
2187;SDS011;1100;52.014;8.540;2022-10-26T17:05:53;7.37;;;2.83;;
2187;SDS011;1100;52.014;8.540;2022-10-26T17:08:23;6.70;;;2.80;;
2187;SDS011;1100;52.014;8.540;2022-10-26T17:10:49;8.57;;;2.63;;
2187;SDS011;1100;52.014;8.540;2022-10-26T17:13:14;7.20;;;2.43;;
2187;SDS011;1100;52.014;8.540;2022-10-26T17:15:39;9.23;;;3.15;;
2187;SDS011;1100;52.014;8.540;2022-10-26T17:18:05;8.40;;;3.30;;
2187;SDS011;1100;52.014;8.540;2022-10-26T17:20:31;7.83;;;3.00;;
2187;SDS011;1100;52.014;8.540;2022-10-26T17:22:57;8.97;;;3.20;;
2187;SDS011;1100;52.014;8.540;2022-10-26T17:25:22;7.57;;;3.43;;
2187;SDS011;1100;52.014;8.540;2022-10-26T17:27:47;9.73;;;3.20;;
2187;SDS011;1100;52.014;8.540;2022-10-26T17:30:13;13.67;;;3.03;;
2187;SDS011;1100;52.014;8.540;2022-10-26T17:32:38;14.60;;;3.00;;
2187;SDS011;1100;52.014;8.540;2022-10-26T17:35:03;12.03;;;2.93;;
2187;SDS011;1100;52.014;8.540;2022-10-26T17:37:29;8.23;;;2.40;;
2187;SDS011;1100;52.014;8.540;2022-10-26T17:39:54;8.23;;;2.63;;
2187;SDS011;1100;52.014;8.540;2022-10-26T17:42:20;6.83;;;2.73;;